Time;durP1;ratioP1;P1;durP2;ratioP2;P2;SDS_P1;SDS_P2;PMS_P1;PMS_P2;Temp;Humidity;BMP_temperature;BMP_pressure;BME280_temperature;BME280_humidity;BME280_pressure;Samples;Min_cycle;Max_cycle;Signal;HPM_P1;HPM_P2
2021/11/01 00:00:26;;;;;;;47.77;29.43;;;;;;;;;;2085720;28;20557;-46
2021/11/01 00:01:30;;;;;;;46.65;30.23;;;;;;;;;;2089058;28;20505;-47
2021/11/01 00:02:30;;;;;;;;;;;;;;;;;;2089839;28;20136;-48
2021/11/01 00:03:32;;;;;;;48.03;29.23;;;;;;;;;;2086375;28;20349;-47
2021/11/01 00:04:33;;;;;;;48.28;29.63;;;;;;;;;;2089247;28;20425;-48
2021/11/01 00:05:34;;;;;;;47.73;28.70;;;;;;;;;;2089179;28;20061;-49
2021/11/01 00:06:35;;;;;;;41.80;29.67;;;;;;;;;;2086748;28;20521;-47
2021/11/01 00:07:36;;;;;;;39.73;26.00;;;;;;;;;;2089105;28;20052;-48
2021/11/01 00:08:37;;;;;;;44.00;30.23;;;;;;;;;;2088776;28;20053;-47
2021/11/01 00:09:38;;;;;;;44.28;29.77;;;;;;;;;;2087312;28;20132;-47
2021/11/01 00:10:39;;;;;;;42.47;29.33;;;;;;;;;;2089073;28;20041;-50
2021/11/01 00:11:41;;;;;;;50.03;30.10;;;;;;;;;;2088677;28;20490;-47
2021/11/01 00:12:43;;;;;;;44.58;29.63;;;;;;;;;;2087089;28;20621;-47
2021/11/01 00:13:44;;;;;;;47.10;32.30;;;;;;;;;;2089300;28;20053;-47
2021/11/01 00:14:45;;;;;;;52.22;30.02;;;;;;;;;;2088414;28;20490;-51
2021/11/01 00:15:46;;;;;;;43.20;29.70;;;;;;;;;;2087274;28;20040;-50
2021/11/01 00:16:48;;;;;;;43.47;29.05;;;;;;;;;;2089048;28;20132;-47
2021/11/01 00:17:49;;;;;;;48.03;31.13;;;;;;;;;;2088160;28;20048;-48
2021/11/01 00:18:50;;;;;;;42.65;29.27;;;;;;;;;;2087606;28;20128;-48
2021/11/01 00:19:51;;;;;;;45.50;27.25;;;;;;;;;;2089111;28;20060;-48
2021/11/01 00:20:53;;;;;;;41.78;29.70;;;;;;;;;;2088200;28;20041;-48
2021/11/01 00:21:54;;;;;;;45.53;29.80;;;;;;;;;;2087664;28;20063;-47
2021/11/01 00:22:55;;;;;;;43.75;30.10;;;;;;;;;;2089147;28;20049;-48
2021/11/01 00:23:56;;;;;;;44.27;29.63;;;;;;;;;;2087386;28;20048;-49
2021/11/01 00:24:57;;;;;;;41.45;29.08;;;;;;;;;;2088607;28;20274;-47
2021/11/01 00:25:58;;;;;;;48.38;33.13;;;;;;;;;;2089088;28;20183;-48
2021/11/01 00:26:59;;;;;;;47.17;28.08;;;;;;;;;;2086685;28;20045;-48
2021/11/01 00:28:00;;;;;;;44.30;27.75;;;;;;;;;;2088285;28;20476;-47
2021/11/01 00:29:03;;;;;;;45.65;30.30;;;;;;;;;;2089181;28;20049;-50
2021/11/01 00:30:06;;;;;;;48.53;31.83;;;;;;;;;;2089025;28;20053;-47
2021/11/01 00:31:07;;;;;;;45.97;30.67;;;;;;;;;;2088370;28;20482;-48
2021/11/01 00:32:09;;;;;;;44.00;29.65;;;;;;;;;;2088945;28;20494;-50
2021/11/01 00:33:10;;;;;;;49.40;33.28;;;;;;;;;;2086602;28;20447;-48
2021/11/01 00:34:11;;;;;;;43.45;29.25;;;;;;;;;;2088894;28;20628;-50
2021/11/01 00:35:12;;;;;;;46.23;30.60;;;;;;;;;;2088948;28;20041;-47
2021/11/01 00:36:13;;;;;;;43.95;27.60;;;;;;;;;;2086635;28;20141;-47
2021/11/01 00:37:14;;;;;;;44.88;29.80;;;;;;;;;;2089020;28;20053;-47
2021/11/01 00:38:15;;;;;;;45.92;29.77;;;;;;;;;;2088639;28;20053;-48
2021/11/01 00:39:16;;;;;;;48.42;32.08;;;;;;;;;;2088452;28;20045;-47
2021/11/01 00:40:17;;;;;;;43.28;28.67;;;;;;;;;;2089105;28;20056;-48
2021/11/01 00:41:18;;;;;;;43.92;28.48;;;;;;;;;;2088630;28;20044;-47
2021/11/01 00:42:19;;;;;;;44.83;30.55;;;;;;;;;;2086976;28;20459;-47
2021/11/01 00:43:20;;;;;;;44.00;28.00;;;;;;;;;;2089085;28;20136;-50
2021/11/01 00:44:21;;;;;;;43.22;26.63;;;;;;;;;;2088354;28;20076;-49
2021/11/01 00:45:22;;;;;;;51.03;32.88;;;;;;;;;;2087284;28;20131;-48
2021/11/01 00:46:23;;;;;;;46.60;31.58;;;;;;;;;;2088870;28;20409;-47
2021/11/01 00:47:25;;;;;;;46.10;29.33;;;;;;;;;;2088382;28;20057;-49
2021/11/01 00:48:26;;;;;;;46.40;30.95;;;;;;;;;;2087116;28;20505;-50
2021/11/01 00:49:27;;;;;;;46.70;31.95;;;;;;;;;;2089081;28;20085;-50
2021/11/01 00:50:29;;;;;;;48.60;32.17;;;;;;;;;;2089358;28;20131;-47
2021/11/01 00:51:30;;;;;;;47.83;31.83;;;;;;;;;;2087439;28;20516;-47
2021/11/01 00:52:32;;;;;;;51.22;30.02;;;;;;;;;;2088993;28;20132;-48
2021/11/01 00:53:35;;;;;;;46.33;30.48;;;;;;;;;;2087670;28;20559;-48
2021/11/01 00:54:36;;;;;;;47.13;31.33;;;;;;;;;;2088283;28;20132;-47
2021/11/01 00:55:48;;;;;;;46.50;31.08;;;;;;;;;;2089552;28;20124;-48
2021/11/01 00:56:49;;;;;;;47.17;31.05;;;;;;;;;;2088135;28;20057;-49
2021/11/01 00:57:50;;;;;;;54.08;34.35;;;;;;;;;;2090178;28;20481;-48
2021/11/01 00:58:51;;;;;;;47.97;28.95;;;;;;;;;;2090475;28;20158;-48
2021/11/01 00:59:52;;;;;;;44.77;29.47;;;;;;;;;;2089339;28;20367;-50
2021/11/01 01:00:54;;;;;;;47.05;28.92;;;;;;;;;;2090425;28;20128;-50
2021/11/01 01:01:55;;;;;;;52.75;31.10;;;;;;;;;;2090242;28;20484;-47
2021/11/01 01:02:57;;;;;;;46.17;30.17;;;;;;;;;;2088437;28;20070;-51
2021/11/01 01:03:59;;;;;;;44.55;30.60;;;;;;;;;;2090379;28;20123;-48
2021/11/01 01:05:01;;;;;;;51.08;33.95;;;;;;;;;;2089860;28;20076;-48
2021/11/01 01:06:03;;;;;;;48.13;31.77;;;;;;;;;;2088455;28;20045;-48
2021/11/01 01:07:06;;;;;;;45.78;29.83;;;;;;;;;;2090398;28;20405;-48
2021/11/01 01:08:07;;;;;;;40.33;28.60;;;;;;;;;;2089610;28;20402;-47
2021/11/01 01:09:08;;;;;;;49.78;31.67;;;;;;;;;;2088469;28;20529;-47
2021/11/01 01:10:09;;;;;;;57.33;32.00;;;;;;;;;;2090397;28;20041;-48
2021/11/01 01:11:10;;;;;;;49.20;32.25;;;;;;;;;;2089589;28;20379;-48
2021/11/01 01:12:11;;;;;;;47.33;30.38;;;;;;;;;;2088697;28;20052;-47
2021/11/01 01:13:13;;;;;;;46.75;30.65;;;;;;;;;;2090323;28;20096;-51
2021/11/01 01:14:14;;;;;;;47.45;31.88;;;;;;;;;;2090607;28;20687;-48
2021/11/01 01:15:19;;;;;;;49.03;30.92;;;;;;;;;;2088657;28;20116;-48
2021/11/01 01:16:24;;;;;;;48.40;31.98;;;;;;;;;;2090290;28;20131;-47
2021/11/01 01:17:26;;;;;;;48.13;31.35;;;;;;;;;;2087917;28;20049;-47
2021/11/01 01:18:33;;;;;;;45.58;28.92;;;;;;;;;;2089907;28;20542;-49
2021/11/01 01:19:43;;;;;;;43.08;29.25;;;;;;;;;;2090196;28;20554;-50
2021/11/01 01:20:44;;;;;;;44.72;28.00;;;;;;;;;;2087950;28;20080;-47
2021/11/01 01:23:04;;;;;;;51.15;32.08;;;;;;;;;;2090707;28;20049;-48
2021/11/01 01:24:24;;;;;;;46.60;30.45;;;;;;;;;;2088920;28;20486;-48
2021/11/01 01:25:36;;;;;;;48.08;32.83;;;;;;;;;;2090207;28;20048;-47
2021/11/01 01:26:38;;;;;;;43.38;31.02;;;;;;;;;;2086043;28;20135;-48
2021/11/01 01:27:39;;;;;;;46.08;30.80;;;;;;;;;;2089916;28;20102;-48
2021/11/01 01:28:40;;;;;;;50.40;33.45;;;;;;;;;;2090266;28;20128;-49
2021/11/01 01:29:41;;;;;;;50.28;33.70;;;;;;;;;;2088025;28;20052;-48
2021/11/01 01:30:42;;;;;;;52.35;33.90;;;;;;;;;;2090227;28;20073;-50
2021/11/01 01:31:46;;;;;;;53.28;33.83;;;;;;;;;;2090120;28;20488;-48
2021/11/01 01:32:47;;;;;;;52.13;35.75;;;;;;;;;;2088544;28;20049;-52
2021/11/01 01:33:49;;;;;;;53.50;35.78;;;;;;;;;;2090084;28;20175;-50
2021/11/01 01:34:50;;;;;;;53.55;36.00;;;;;;;;;;2089429;28;20055;-52
2021/11/01 01:35:51;;;;;;;58.90;36.17;;;;;;;;;;2087183;28;20477;-52
2021/11/01 01:36:52;;;;;;;57.47;35.65;;;;;;;;;;2090139;28;20057;-53
2021/11/01 01:37:54;;;;;;;52.17;36.05;;;;;;;;;;2089069;28;20448;-53
2021/11/01 01:38:55;;;;;;;51.47;35.33;;;;;;;;;;2088649;28;20132;-51
2021/11/01 01:39:56;;;;;;;52.50;33.83;;;;;;;;;;2090046;28;20410;-51
2021/11/01 01:40:57;;;;;;;53.37;34.50;;;;;;;;;;2090503;28;20041;-49
2021/11/01 01:41:58;;;;;;;50.10;32.65;;;;;;;;;;2088496;28;20044;-53
2021/11/01 01:42:59;;;;;;;53.10;34.13;;;;;;;;;;2089994;28;20504;-50
2021/11/01 01:44:01;;;;;;;53.95;33.80;;;;;;;;;;2090604;28;20132;-50
2021/11/01 01:45:03;;;;;;;53.78;33.83;;;;;;;;;;2088681;28;20075;-50
2021/11/01 01:46:03;;;;;;;49.10;32.78;;;;;;;;;;2090115;28;20040;-49
2021/11/01 01:47:07;;;;;;;53.97;34.15;;;;;;;;;;2087741;28;20045;-50
2021/11/01 01:48:08;;;;;;;58.10;31.77;;;;;;;;;;2089938;28;20044;-49
2021/11/01 01:49:10;;;;;;;48.10;33.40;;;;;;;;;;2089963;28;20462;-52
2021/11/01 01:50:12;;;;;;;54.90;34.05;;;;;;;;;;2087719;28;20045;-50
2021/11/01 01:51:13;;;;;;;;;;;;;;;;;;2090412;28;20121;-51
2021/11/01 01:52:15;;;;;;;50.10;30.48;;;;;;;;;;2089794;28;20023;-51
2021/11/01 01:53:16;;;;;;;51.38;36.08;;;;;;;;;;2088956;28;20375;-49
2021/11/01 01:54:17;;;;;;;57.33;35.67;;;;;;;;;;2090090;28;20132;-50
2021/11/01 01:55:18;;;;;;;57.37;34.53;;;;;;;;;;2090045;28;20049;-50
2021/11/01 01:56:19;;;;;;;52.83;35.28;;;;;;;;;;2087536;28;20051;-53
2021/11/01 01:57:20;;;;;;;52.28;33.05;;;;;;;;;;2090007;28;20099;-52
2021/11/01 01:58:25;;;;;;;51.10;34.30;;;;;;;;;;2089465;28;20398;-53
2021/11/01 01:59:28;;;;;;;53.25;34.20;;;;;;;;;;2083024;28;20365;-49
2021/11/01 02:00:41;;;;;;;51.67;34.63;;;;;;;;;;2089373;28;20200;-50
2021/11/01 02:01:43;;;;;;;51.15;30.85;;;;;;;;;;2089075;28;20502;-50
2021/11/01 02:02:44;;;;;;;52.60;37.20;;;;;;;;;;2088382;28;20048;-51
2021/11/01 02:03:48;;;;;;;51.22;34.13;;;;;;;;;;2088568;28;20184;-52
2021/11/01 02:04:50;;;;;;;51.80;33.53;;;;;;;;;;2088078;28;20063;-50
2021/11/01 02:05:55;;;;;;;56.50;38.08;;;;;;;;;;2088352;28;20140;-49
2021/11/01 02:07:13;;;;;;;48.90;33.50;;;;;;;;;;2089834;28;20055;-49
2021/11/01 02:08:14;;;;;;;49.72;32.47;;;;;;;;;;2087618;28;20051;-49
2021/11/01 02:09:18;;;;;;;59.28;35.58;;;;;;;;;;2089897;28;20091;-49
2021/11/01 02:10:22;;;;;;;54.42;36.05;;;;;;;;;;2089418;28;20080;-51
2021/11/01 02:11:29;;;;;;;57.45;35.53;;;;;;;;;;2087914;28;20155;-51
2021/11/01 02:12:34;;;;;;;57.90;35.53;;;;;;;;;;2089929;28;20046;-50
2021/11/01 02:13:37;;;;;;;58.65;38.35;;;;;;;;;;2090319;28;20131;-50
2021/11/01 02:14:39;;;;;;;57.95;37.30;;;;;;;;;;2087517;28;20136;-52
2021/11/01 02:15:43;;;;;;;54.80;37.58;;;;;;;;;;2089930;28;20072;-50
2021/11/01 02:16:46;;;;;;;55.35;36.85;;;;;;;;;;2088603;28;20407;-50
2021/11/01 02:17:48;;;;;;;58.67;36.95;;;;;;;;;;2088547;28;20555;-51
2021/11/01 02:18:51;;;;;;;53.38;36.08;;;;;;;;;;2089711;28;20128;-50
2021/11/01 02:19:53;;;;;;;56.10;38.92;;;;;;;;;;2087628;28;20048;-50
2021/11/01 02:20:58;;;;;;;61.40;38.42;;;;;;;;;;2089641;28;20541;-53
2021/11/01 02:22:01;;;;;;;58.35;38.38;;;;;;;;;;2089813;28;20049;-50
2021/11/01 02:23:08;;;;;;;55.65;38.45;;;;;;;;;;2087369;28;20414;-49
2021/11/01 02:24:15;;;;;;;50.13;33.10;;;;;;;;;;2089781;28;20132;-49
2021/11/01 02:25:22;;;;;;;56.40;38.60;;;;;;;;;;2089333;28;20067;-50
2021/11/01 02:26:23;;;;;;;57.15;36.42;;;;;;;;;;2087600;28;20080;-50
2021/11/01 02:27:25;;;;;;;61.00;35.78;;;;;;;;;;2089717;28;20083;-53
2021/11/01 02:28:28;;;;;;;56.95;37.85;;;;;;;;;;2088795;28;20130;-53
2021/11/01 02:29:30;;;;;;;58.08;37.25;;;;;;;;;;2088493;28;20448;-50
2021/11/01 02:30:31;;;;;;;60.28;41.17;;;;;;;;;;2089696;28;20049;-49
2021/11/01 02:31:33;;;;;;;60.20;39.60;;;;;;;;;;2089923;28;20124;-49
2021/11/01 02:32:35;;;;;;;53.30;35.88;;;;;;;;;;2087402;28;20053;-50
2021/11/01 02:33:37;;;;;;;57.22;36.70;;;;;;;;;;2089688;28;20141;-50
2021/11/01 02:34:38;;;;;;;55.03;35.95;;;;;;;;;;2087432;28;20467;-49
2021/11/01 02:35:39;;;;;;;63.40;40.08;;;;;;;;;;2088536;28;20414;-50
2021/11/01 02:36:43;;;;;;;61.97;40.10;;;;;;;;;;2089728;28;20051;-51
2021/11/01 02:37:44;;;;;;;59.20;39.30;;;;;;;;;;2089000;28;20423;-52
2021/11/01 02:38:50;;;;;;;57.27;34.73;;;;;;;;;;2081548;28;20510;-50
2021/11/01 02:39:53;;;;;;;57.35;38.15;;;;;;;;;;2081485;28;20053;-51
2021/11/01 02:40:55;;;;;;;57.90;36.33;;;;;;;;;;2086510;28;20098;-49
2021/11/01 02:41:56;;;;;;;51.28;35.80;;;;;;;;;;2089686;28;20053;-49
2021/11/01 02:42:57;;;;;;;60.38;38.35;;;;;;;;;;2088978;28;20045;-49
2021/11/01 02:43:59;;;;;;;56.95;36.22;;;;;;;;;;2087752;28;20087;-50
2021/11/01 02:45:01;;;;;;;54.33;36.75;;;;;;;;;;2089809;28;20128;-50
2021/11/01 02:46:04;;;;;;;57.75;39.38;;;;;;;;;;2088956;28;20128;-48
2021/11/01 02:47:06;;;;;;;56.75;37.33;;;;;;;;;;2087854;28;20075;-49
2021/11/01 02:48:07;;;;;;;60.10;39.45;;;;;;;;;;2089298;28;20071;-49
2021/11/01 02:49:08;;;;;;;53.67;37.63;;;;;;;;;;2088760;28;20053;-50
2021/11/01 02:50:11;;;;;;;58.17;34.58;;;;;;;;;;2088094;28;20475;-49
2021/11/01 02:51:12;;;;;;;58.03;40.10;;;;;;;;;;2089630;28;20402;-50
2021/11/01 02:52:13;;;;;;;57.47;35.03;;;;;;;;;;2087352;28;20476;-48
2021/11/01 02:53:14;;;;;;;53.28;35.40;;;;;;;;;;2088278;28;20049;-50
2021/11/01 02:54:15;;;;;;;55.80;37.05;;;;;;;;;;2089558;28;20562;-49
2021/11/01 02:55:18;;;;;;;62.55;36.72;;;;;;;;;;2087529;28;20051;-49
2021/11/01 02:56:19;;;;;;;60.20;40.35;;;;;;;;;;2088508;28;20174;-50
2021/11/01 02:57:21;;;;;;;57.13;38.47;;;;;;;;;;2089779;28;20132;-49
2021/11/01 02:58:21;;;;;;;54.45;33.88;;;;;;;;;;2087479;28;20127;-50
2021/11/01 02:59:22;;;;;;;50.80;35.08;;;;;;;;;;2089295;28;20049;-52
2021/11/01 03:00:25;;;;;;;50.22;32.63;;;;;;;;;;2089605;28;20203;-51
2021/11/01 03:01:27;;;;;;;43.88;31.48;;;;;;;;;;2087168;28;20087;-48
2021/11/01 03:02:28;;;;;;;60.20;37.03;;;;;;;;;;2089475;28;20059;-49
2021/11/01 03:03:29;;;;;;;53.40;35.20;;;;;;;;;;2088097;28;20238;-50
2021/11/01 03:04:30;;;;;;;53.85;35.28;;;;;;;;;;2087229;28;20041;-49
2021/11/01 03:05:31;;;;;;;55.17;36.38;;;;;;;;;;2089636;28;20156;-51
2021/11/01 03:06:33;;;;;;;52.53;33.13;;;;;;;;;;2089580;28;20083;-49
2021/11/01 03:07:35;;;;;;;48.53;33.70;;;;;;;;;;2088471;28;20053;-48
2021/11/01 03:08:36;;;;;;;;;;;;;;;;;;2090055;28;20124;-52
2021/11/01 03:09:38;;;;;;;49.20;34.35;;;;;;;;;;2088857;28;19921;-49
2021/11/01 03:10:39;;;;;;;60.13;37.03;;;;;;;;;;2087516;28;20124;-49
2021/11/01 03:11:40;;;;;;;51.65;33.53;;;;;;;;;;2089470;28;20059;-49
2021/11/01 03:12:43;;;;;;;54.05;35.80;;;;;;;;;;2088750;28;20041;-50
2021/11/01 03:13:44;;;;;;;51.92;32.70;;;;;;;;;;2087793;28;20049;-52
2021/11/01 03:14:52;;;;;;;53.65;36.38;;;;;;;;;;2089397;28;20486;-52
2021/11/01 03:15:54;;;;;;;46.50;30.73;;;;;;;;;;2088186;28;20072;-52
2021/11/01 03:16:55;;;;;;;49.45;32.55;;;;;;;;;;2087870;28;20387;-50
2021/11/01 03:17:58;;;;;;;51.58;31.73;;;;;;;;;;2088453;28;20479;-49
2021/11/01 03:19:06;;;;;;;52.47;34.83;;;;;;;;;;2087729;28;20102;-52
2021/11/01 03:20:10;;;;;;;53.47;37.42;;;;;;;;;;2088387;28;20127;-52
2021/11/01 03:21:12;;;;;;;54.95;35.25;;;;;;;;;;2088824;28;20553;-52
2021/11/01 03:22:13;;;;;;;;;;;;;;;;;;2087496;28;20128;-52
2021/11/01 03:23:17;;;;;;;54.67;34.70;;;;;;;;;;2089423;28;19960;-52
2021/11/01 03:24:18;;;;;;;54.83;34.45;;;;;;;;;;2089390;28;20474;-50
2021/11/01 03:25:26;;;;;;;52.63;34.00;;;;;;;;;;2087153;28;20118;-53
2021/11/01 03:26:28;;;;;;;59.63;37.40;;;;;;;;;;2089333;28;20044;-49
2021/11/01 03:27:33;;;;;;;51.75;37.17;;;;;;;;;;2088959;28;20127;-50
2021/11/01 03:28:34;;;;;;;60.08;38.17;;;;;;;;;;2085656;28;20044;-49
2021/11/01 03:29:36;;;;;;;52.20;34.17;;;;;;;;;;2089414;28;20086;-50
2021/11/01 03:30:37;;;;;;;57.85;39.33;;;;;;;;;;2090188;28;20131;-49
2021/11/01 03:31:39;;;;;;;56.65;36.85;;;;;;;;;;2087104;28;20203;-52
2021/11/01 03:32:40;;;;;;;;;;;;;;;;;;2089780;28;20426;-49
2021/11/01 03:33:42;;;;;;;56.75;34.08;;;;;;;;;;2088450;28;19928;-50
2021/11/01 03:34:44;;;;;;;56.17;35.30;;;;;;;;;;2087828;28;20055;-49
2021/11/01 03:35:46;;;;;;;55.65;37.70;;;;;;;;;;2089304;28;20135;-51
2021/11/01 03:36:48;;;;;;;57.72;38.47;;;;;;;;;;2087647;28;20049;-49
2021/11/01 03:37:51;;;;;;;54.92;37.05;;;;;;;;;;2088852;28;20037;-51
2021/11/01 03:38:54;;;;;;;54.10;35.97;;;;;;;;;;2089390;28;20401;-49
2021/11/01 03:39:56;;;;;;;55.55;37.40;;;;;;;;;;2089435;28;20048;-49
2021/11/01 03:40:58;;;;;;;61.13;38.60;;;;;;;;;;2088366;28;20123;-49
2021/11/01 03:41:59;;;;;;;59.47;40.03;;;;;;;;;;2089221;28;20049;-52
2021/11/01 03:43:04;;;;;;;56.20;36.57;;;;;;;;;;2085932;28;20076;-49
2021/11/01 03:44:06;;;;;;;55.53;36.08;;;;;;;;;;2081123;28;20132;-50
2021/11/01 03:45:09;;;;;;;58.72;37.53;;;;;;;;;;2088683;28;20167;-49
2021/11/01 03:46:10;;;;;;;57.25;39.85;;;;;;;;;;2086156;28;20178;-52
2021/11/01 03:47:13;;;;;;;62.28;40.50;;;;;;;;;;2089358;28;20045;-55
2021/11/01 03:48:16;;;;;;;65.07;39.72;;;;;;;;;;2088848;28;20109;-50
2021/11/01 03:49:18;;;;;;;61.28;40.05;;;;;;;;;;2086314;28;20712;-48
2021/11/01 03:50:29;;;;;;;64.28;42.58;;;;;;;;;;2089235;28;20128;-49
2021/11/01 03:51:44;;;;;;;53.00;35.60;;;;;;;;;;2088313;28;20119;-50
2021/11/01 03:52:47;;;;;;;61.47;38.65;;;;;;;;;;2088925;28;20405;-50
2021/11/01 03:53:48;;;;;;;68.43;44.25;;;;;;;;;;2089144;28;20057;-51
2021/11/01 03:54:51;;;;;;;66.50;42.00;;;;;;;;;;2088858;28;20128;-49
2021/11/01 03:55:52;;;;;;;61.90;42.70;;;;;;;;;;2089022;28;20059;-49
2021/11/01 03:56:54;;;;;;;64.85;40.55;;;;;;;;;;2089497;28;20139;-50
2021/11/01 03:57:55;;;;;;;61.47;39.13;;;;;;;;;;2086764;28;20392;-51
2021/11/01 03:58:57;;;;;;;61.20;38.60;;;;;;;;;;2089329;28;20079;-51
2021/11/01 04:00:05;;;;;;;61.33;43.13;;;;;;;;;;2088676;28;20056;-50
2021/11/01 04:01:06;;;;;;;65.72;40.25;;;;;;;;;;2087244;28;20600;-50
2021/11/01 04:02:10;;;;;;;66.30;41.90;;;;;;;;;;2089168;28;20049;-50
2021/11/01 04:03:11;;;;;;;58.53;38.15;;;;;;;;;;2087202;28;20051;-50
2021/11/01 04:04:13;;;;;;;58.33;40.43;;;;;;;;;;2087568;28;20464;-51
2021/11/01 04:05:14;;;;;;;52.83;36.47;;;;;;;;;;2089397;28;20824;-49
2021/11/01 04:06:17;;;;;;;64.23;38.43;;;;;;;;;;2089692;28;20094;-50
2021/11/01 04:07:18;;;;;;;57.95;40.13;;;;;;;;;;2087528;28;20053;-51
2021/11/01 04:08:19;;;;;;;68.03;42.00;;;;;;;;;;2089304;28;20056;-50
2021/11/01 04:09:21;;;;;;;64.75;42.53;;;;;;;;;;2088065;28;20387;-51
2021/11/01 04:10:23;;;;;;;68.25;42.25;;;;;;;;;;2088016;28;20084;-50
2021/11/01 04:11:24;;;;;;;62.00;41.53;;;;;;;;;;2089116;28;20053;-51
2021/11/01 04:12:25;;;;;;;63.00;41.75;;;;;;;;;;2089352;28;20135;-53
2021/11/01 04:13:27;;;;;;;71.38;46.13;;;;;;;;;;2087979;28;20558;-52
2021/11/01 04:14:35;;;;;;;65.65;43.20;;;;;;;;;;2089195;28;20132;-49
2021/11/01 04:15:42;;;;;;;67.38;43.67;;;;;;;;;;2088660;28;20053;-48
2021/11/01 04:16:46;;;;;;;67.93;45.55;;;;;;;;;;2080820;28;20140;-50
2021/11/01 04:17:53;;;;;;;61.92;42.35;;;;;;;;;;2080839;28;20132;-49
2021/11/01 04:19:00;;;;;;;63.88;41.67;;;;;;;;;;2086885;28;20094;-48
2021/11/01 04:20:06;;;;;;;63.65;42.53;;;;;;;;;;2089169;28;20120;-52
2021/11/01 04:21:09;;;;;;;65.40;41.63;;;;;;;;;;2089696;28;20135;-50
2021/11/01 04:22:11;;;;;;;63.95;43.38;;;;;;;;;;2087485;28;20045;-48
2021/11/01 04:23:12;;;;;;;64.10;42.22;;;;;;;;;;2089272;28;20120;-51
2021/11/01 04:24:15;;;;;;;63.65;42.10;;;;;;;;;;2087584;28;20152;-49
2021/11/01 04:25:17;;;;;;;64.07;40.83;;;;;;;;;;2088639;28;20106;-52
2021/11/01 04:26:20;;;;;;;65.68;44.80;;;;;;;;;;2089022;28;20139;-49
2021/11/01 04:27:25;;;;;;;63.78;42.33;;;;;;;;;;2086747;28;20049;-49
2021/11/01 04:28:26;;;;;;;64.00;42.45;;;;;;;;;;2088960;28;20127;-50
2021/11/01 04:29:31;;;;;;;63.83;41.45;;;;;;;;;;2089744;28;20041;-49
2021/11/01 04:30:37;;;;;;;66.28;41.53;;;;;;;;;;2088080;28;20555;-52
2021/11/01 04:31:41;;;;;;;66.40;41.33;;;;;;;;;;2090507;28;20049;-50
2021/11/01 04:32:43;;;;;;;60.47;39.95;;;;;;;;;;2090065;28;20059;-50
2021/11/01 04:33:44;;;;;;;62.22;41.00;;;;;;;;;;2088610;28;20048;-50
2021/11/01 04:34:49;;;;;;;66.43;41.53;;;;;;;;;;2090458;28;20051;-50
2021/11/01 04:35:50;;;;;;;61.60;42.13;;;;;;;;;;2089738;28;20490;-49
2021/11/01 04:36:53;;;;;;;63.53;42.05;;;;;;;;;;2088859;28;20079;-51
2021/11/01 04:38:01;;;;;;;79.13;45.03;;;;;;;;;;2090558;28;20060;-49
2021/11/01 04:39:07;;;;;;;67.38;45.53;;;;;;;;;;2090781;28;20128;-51
2021/11/01 04:40:22;;;;;;;66.28;41.33;;;;;;;;;;2088121;28;20041;-49
2021/11/01 04:41:28;;;;;;;62.03;41.75;;;;;;;;;;2090119;28;20457;-48
2021/11/01 04:53:17;;;;;;;68.05;45.17;;;;;;;;;;2090515;28;20128;-45
2021/11/01 04:54:19;;;;;;;69.32;43.55;;;;;;;;;;2089294;28;20145;-45
2021/11/01 04:55:21;;;;;;;;;;;;;;;;;;2090725;28;20509;-46
2021/11/01 04:56:25;;;;;;;58.83;37.50;;;;;;;;;;2089907;28;19960;-47
2021/11/01 04:57:25;;;;;;;61.08;40.47;;;;;;;;;;2088495;28;20127;-45
2021/11/01 04:58:27;;;;;;;68.47;44.27;;;;;;;;;;2090337;28;20141;-46
2021/11/01 04:59:29;;;;;;;68.90;45.22;;;;;;;;;;2091034;28;20608;-46
2021/11/01 05:00:30;;;;;;;73.85;43.95;;;;;;;;;;2088317;28;20071;-45
2021/11/01 05:01:35;;;;;;;62.45;40.10;;;;;;;;;;2090240;28;20049;-46
2021/11/01 05:02:39;;;;;;;58.30;38.30;;;;;;;;;;2089144;28;20461;-45
2021/11/01 05:03:42;;;;;;;62.33;39.95;;;;;;;;;;2088330;28;20052;-46
2021/11/01 05:04:45;;;;;;;60.80;40.17;;;;;;;;;;2090232;28;20689;-47
2021/11/01 05:05:46;;;;;;;67.18;41.40;;;;;;;;;;2088833;28;20056;-44
2021/11/01 05:06:50;;;;;;;66.25;43.90;;;;;;;;;;2089615;28;20098;-44
2021/11/01 05:07:52;;;;;;;66.78;41.13;;;;;;;;;;2090248;28;20040;-45
2021/11/01 05:08:58;;;;;;;58.70;38.88;;;;;;;;;;2088156;28;20074;-44
2021/11/01 05:10:02;;;;;;;67.93;40.97;;;;;;;;;;2089490;28;20068;-45
2021/11/01 05:11:11;;;;;;;66.13;41.80;;;;;;;;;;2090211;28;20570;-45
2021/11/01 05:12:21;;;;;;;65.65;38.70;;;;;;;;;;2086829;28;20123;-44
2021/11/01 05:13:26;;;;;;;64.15;41.60;;;;;;;;;;2090335;28;20055;-47
2021/11/01 05:14:35;;;;;;;72.28;45.40;;;;;;;;;;2089623;28;20128;-45
2021/11/01 05:15:40;;;;;;;61.95;39.75;;;;;;;;;;2087887;28;20045;-45
2021/11/01 05:16:52;;;;;;;66.75;42.38;;;;;;;;;;2090205;28;20174;-45
2021/11/01 05:17:56;;;;;;;66.15;41.17;;;;;;;;;;2088058;28;20045;-45
2021/11/01 05:19:03;;;;;;;60.67;41.83;;;;;;;;;;2090011;28;20539;-45
2021/11/01 05:20:11;;;;;;;71.65;44.33;;;;;;;;;;2089828;28;20043;-46
2021/11/01 05:21:23;;;;;;;73.78;44.50;;;;;;;;;;2088370;28;20164;-47
2021/11/01 05:22:29;;;;;;;;;;;;;;;;;;2090678;28;20152;-45
2021/11/01 05:23:33;;;;;;;69.00;43.53;;;;;;;;;;2086830;28;19967;-45
2021/11/01 05:24:37;;;;;;;78.13;44.92;;;;;;;;;;2088713;28;20049;-45
2021/11/01 05:25:41;;;;;;;72.40;43.15;;;;;;;;;;2090075;28;20073;-45
2021/11/01 05:27:06;;;;;;;73.60;45.15;;;;;;;;;;2088060;28;20178;-44
2021/11/01 05:28:12;;;;;;;74.05;45.75;;;;;;;;;;2082032;28;20094;-45
2021/11/01 05:29:14;;;;;;;68.43;44.63;;;;;;;;;;2084614;28;20573;-48
2021/11/01 05:30:17;;;;;;;75.70;45.15;;;;;;;;;;2088291;28;20140;-44
2021/11/01 05:31:21;;;;;;;76.57;47.78;;;;;;;;;;2090400;28;20136;-46
2021/11/01 05:32:24;;;;;;;74.57;46.63;;;;;;;;;;2089174;28;20533;-45
2021/11/01 05:33:42;;;;;;;79.80;49.45;;;;;;;;;;2087814;28;20131;-45
2021/11/01 05:34:43;;;;;;;80.15;49.42;;;;;;;;;;2090237;28;20152;-46
2021/11/01 05:35:44;;;;;;;86.05;50.42;;;;;;;;;;2086808;28;20106;-45
2021/11/01 05:36:45;;;;;;;79.18;49.60;;;;;;;;;;2089630;28;20045;-45
2021/11/01 05:37:47;;;;;;;72.65;46.67;;;;;;;;;;2090180;28;20183;-45
2021/11/01 05:38:49;;;;;;;75.55;50.53;;;;;;;;;;2087669;28;20049;-46
2021/11/01 05:39:50;;;;;;;71.75;48.45;;;;;;;;;;2090128;28;20406;-46
2021/11/01 05:40:51;;;;;;;75.88;45.55;;;;;;;;;;2089542;28;20049;-45
2021/11/01 05:41:52;;;;;;;76.20;48.27;;;;;;;;;;2086668;28;20045;-45
2021/11/01 05:42:53;;;;;;;83.00;50.90;;;;;;;;;;2090124;28;20052;-45
2021/11/01 05:43:54;;;;;;;75.18;48.03;;;;;;;;;;2089572;28;20052;-46
2021/11/01 05:44:55;;;;;;;75.72;49.85;;;;;;;;;;2088103;28;20131;-44
2021/11/01 05:45:57;;;;;;;77.05;49.30;;;;;;;;;;2090024;28;20044;-44
2021/11/01 05:46:59;;;;;;;79.63;50.67;;;;;;;;;;2090961;28;20049;-44
2021/11/01 05:48:02;;;;;;;76.63;46.22;;;;;;;;;;2087454;28;20044;-45
2021/11/01 05:49:04;;;;;;;82.50;49.65;;;;;;;;;;2090021;28;20553;-46
2021/11/01 05:50:05;;;;;;;;;;;;;;;;;;2089524;28;20128;-46
2021/11/01 05:51:08;;;;;;;82.53;48.38;;;;;;;;;;2088736;28;19952;-45
2021/11/01 05:52:16;;;;;;;79.32;48.78;;;;;;;;;;2089924;28;20409;-45
2021/11/01 05:53:17;;;;;;;91.32;51.50;;;;;;;;;;2088034;28;20163;-45
2021/11/01 05:54:20;;;;;;;86.00;50.00;;;;;;;;;;2089770;28;20060;-45
2021/11/01 05:55:32;;;;;;;90.55;51.92;;;;;;;;;;2090069;28;20094;-44
2021/11/01 05:56:35;;;;;;;92.20;53.70;;;;;;;;;;2087606;28;20501;-45
2021/11/01 05:57:45;;;;;;;82.22;51.58;;;;;;;;;;2089998;28;20052;-44
2021/11/01 05:59:00;;;;;;;83.90;50.70;;;;;;;;;;2090383;28;20124;-45
2021/11/01 06:00:11;;;;;;;90.43;55.40;;;;;;;;;;2087941;28;20136;-45
2021/11/01 06:01:38;;;;;;;96.13;54.55;;;;;;;;;;2090110;28;20496;-49
2021/11/01 06:02:46;;;;;;;97.55;52.70;;;;;;;;;;2088164;28;20084;-51
2021/11/01 06:03:57;;;;;;;90.38;53.88;;;;;;;;;;2081749;28;20056;-48
2021/11/01 06:05:06;;;;;;;92.35;53.10;;;;;;;;;;2083511;28;20405;-49
2021/11/01 06:07:33;;;;;;;89.57;53.72;;;;;;;;;;2089976;28;20127;-49
2021/11/01 06:08:44;;;;;;;84.80;48.58;;;;;;;;;;2088881;28;20132;-50
2021/11/01 06:09:56;;;;;;;94.45;55.78;;;;;;;;;;2090101;28;20076;-52
2021/11/01 06:13:47;;;;;;;92.65;51.53;;;;;;;;;;2062394;28;20053;-48
2021/11/01 06:14:48;;;;;;;90.10;52.97;;;;;;;;;;2061908;28;20129;-49
2021/11/01 06:15:49;;;;;;;85.40;50.27;;;;;;;;;;2064487;28;20046;-51
2021/11/01 06:16:50;;;;;;;90.90;53.53;;;;;;;;;;2085098;28;20037;-49
2021/11/01 06:17:52;;;;;;;91.93;55.08;;;;;;;;;;2088325;28;20398;-49
2021/11/01 06:18:53;;;;;;;85.90;51.55;;;;;;;;;;2089895;28;20048;-49
2021/11/01 06:19:54;;;;;;;89.07;54.15;;;;;;;;;;2088578;28;20128;-52
2021/11/01 06:20:55;;;;;;;80.63;49.22;;;;;;;;;;2088802;28;20159;-52
2021/11/01 06:21:56;;;;;;;78.50;50.40;;;;;;;;;;2089743;28;20136;-49
2021/11/01 06:22:57;;;;;;;81.50;49.63;;;;;;;;;;2086469;28;20045;-49
2021/11/01 06:24:01;;;;;;;85.07;51.53;;;;;;;;;;2088386;28;20135;-50
2021/11/01 06:25:05;;;;;;;80.90;48.60;;;;;;;;;;2089909;28;20127;-53